createdAt,value
2023-07-01T00:01:52.903Z,79.94
2023-07-01T00:04:39.810Z,79.96
2023-07-01T00:07:26.844Z,79.77
2023-07-01T00:10:13.424Z,79.66
2023-07-01T00:13:00.424Z,79.77
2023-07-01T00:15:47.090Z,79.50
2023-07-01T00:18:34.423Z,79.48
2023-07-01T00:21:21.226Z,79.75
2023-07-01T00:24:07.515Z,79.62
2023-07-01T00:26:53.937Z,79.23
2023-07-01T00:29:40.628Z,79.23
2023-07-01T00:32:27.521Z,79.50
2023-07-01T00:35:14.624Z,79.29
2023-07-01T00:38:01.385Z,79.43
2023-07-01T00:40:48.727Z,79.45
2023-07-01T00:43:35.606Z,79.27
2023-07-01T00:46:23.231Z,79.14
2023-07-01T00:49:10.094Z,79.09
2023-07-01T00:51:58.146Z,79.21
2023-07-01T00:54:45.657Z,78.90
2023-07-01T00:57:33.931Z,78.85
2023-07-01T01:00:20.620Z,78.92
2023-07-01T01:03:23.005Z,79.07
2023-07-01T01:06:24.884Z,79.02
2023-07-01T01:09:46.054Z,78.96
2023-07-01T01:12:34.713Z,78.77
2023-07-01T01:15:21.686Z,78.93
2023-07-01T01:18:10.984Z,78.99
2023-07-01T01:20:58.600Z,78.94
2023-07-01T01:24:00.073Z,79.18
2023-07-01T01:26:50.377Z,79.34
2023-07-01T01:29:37.084Z,79.62
2023-07-01T01:32:24.283Z,79.74
2023-07-01T01:35:10.916Z,79.56
2023-07-01T01:38:06.646Z,79.45
2023-07-01T01:41:01.763Z,79.46
2023-07-01T01:44:00.052Z,79.50
2023-07-01T01:46:47.663Z,79.53
2023-07-01T01:49:35.669Z,79.52
2023-07-01T01:52:23.746Z,79.47
2023-07-01T01:55:13.197Z,80.00
2023-07-01T01:58:00.698Z,79.82
2023-07-01T02:00:47.948Z,79.86
2023-07-01T02:03:36.638Z,79.96
2023-07-01T02:06:23.416Z,79.87
2023-07-01T02:09:10.127Z,79.80
2023-07-01T02:11:58.517Z,79.69
2023-07-01T02:14:45.897Z,79.61
2023-07-01T02:17:32.243Z,79.54
2023-07-01T02:20:20.116Z,79.45
2023-07-01T02:23:06.958Z,79.50
2023-07-01T02:25:55.193Z,79.33
2023-07-01T02:28:41.496Z,79.30
2023-07-01T02:31:28.480Z,79.29
2023-07-01T02:34:15.803Z,79.17
2023-07-01T02:37:02.492Z,79.24
2023-07-01T02:39:48.982Z,79.50
2023-07-01T02:42:35.497Z,79.45
2023-07-01T02:45:21.958Z,79.45
2023-07-01T02:48:08.815Z,79.42
2023-07-01T02:50:55.404Z,79.35
2023-07-01T02:53:42.480Z,79.75
2023-07-01T02:56:28.995Z,79.69
2023-07-01T02:59:15.940Z,79.53
2023-07-01T03:02:06.340Z,79.46
2023-07-01T03:04:52.736Z,79.42
2023-07-01T03:07:39.881Z,79.36
2023-07-01T03:10:27.051Z,79.48
2023-07-01T03:13:13.389Z,79.10
2023-07-01T03:16:02.226Z,79.05
2023-07-01T03:18:49.078Z,79.13
2023-07-01T03:21:37.572Z,78.94
2023-07-01T03:24:24.138Z,78.86
2023-07-01T03:27:13.879Z,78.54
2023-07-01T03:30:01.382Z,78.45
2023-07-01T03:32:49.238Z,78.54
2023-07-01T03:35:35.842Z,78.59
2023-07-01T03:38:23.200Z,78.40
2023-07-01T03:41:09.838Z,78.32
2023-07-01T03:43:57.514Z,78.31
2023-07-01T03:46:44.087Z,78.10
2023-07-01T03:49:31.511Z,78.05
2023-07-01T03:52:18.156Z,78.04
2023-07-01T03:55:09.108Z,77.99
2023-07-01T03:57:56.045Z,78.06
2023-07-01T04:00:42.426Z,77.90
2023-07-01T04:03:29.192Z,77.92
2023-07-01T04:06:15.793Z,77.82
2023-07-01T04:09:02.116Z,77.85
2023-07-01T04:11:48.891Z,77.71
2023-07-01T04:14:35.609Z,77.61
2023-07-01T04:17:22.176Z,77.60
2023-07-01T04:20:10.899Z,77.55
2023-07-01T04:22:57.774Z,77.13
2023-07-01T04:25:45.475Z,76.97
2023-07-01T04:28:31.843Z,76.62
2023-07-01T04:31:18.281Z,76.35
2023-07-01T04:34:04.978Z,76.20
2023-07-01T04:36:51.467Z,75.99
2023-07-01T04:39:37.904Z,75.56
2023-07-01T04:42:24.568Z,75.26
2023-07-01T04:45:11.102Z,75.06
2023-07-01T04:47:57.605Z,74.76
2023-07-01T04:50:44.560Z,73.67
2023-07-01T04:53:31.239Z,74.02
2023-07-01T04:56:18.170Z,73.42
2023-07-01T04:59:04.883Z,73.03
2023-07-01T05:01:51.746Z,73.14
2023-07-01T05:04:39.256Z,73.15
2023-07-01T05:07:26.224Z,72.44
2023-07-01T05:10:12.995Z,71.56
2023-07-01T05:12:59.280Z,71.59
2023-07-01T05:15:45.968Z,71.49
2023-07-01T05:18:32.255Z,71.11
2023-07-01T05:21:19.040Z,70.61
2023-07-01T05:24:05.699Z,70.57
2023-07-01T05:26:54.003Z,70.29
2023-07-01T05:29:40.324Z,69.86
2023-07-01T05:32:27.364Z,69.48
2023-07-01T05:35:16.307Z,68.39
2023-07-01T05:38:14.081Z,68.25
2023-07-01T05:41:00.827Z,67.97
2023-07-01T05:43:47.343Z,68.15
2023-07-01T05:46:34.372Z,66.06
2023-07-01T05:49:21.249Z,65.87
2023-07-01T05:52:08.068Z,66.33
2023-07-01T05:54:54.527Z,66.14
2023-07-01T05:57:41.226Z,65.91
2023-07-01T06:00:27.741Z,66.16
2023-07-01T06:03:15.732Z,64.78
2023-07-01T06:06:02.788Z,63.88
2023-07-01T06:08:49.432Z,63.36
2023-07-01T06:11:38.247Z,62.51
2023-07-01T06:14:24.695Z,62.28
2023-07-01T06:17:12.680Z,60.98
2023-07-01T06:19:59.350Z,60.77
2023-07-01T06:22:45.844Z,59.54
2023-07-01T06:25:33.428Z,59.84
2023-07-01T06:28:22.724Z,59.84
2023-07-01T06:31:11.498Z,58.99
2023-07-01T06:33:58.251Z,57.89
2023-07-01T06:36:45.162Z,57.79
2023-07-01T06:39:31.994Z,57.44
2023-07-01T06:42:19.518Z,57.22
2023-07-01T06:45:06.819Z,56.89
2023-07-01T06:47:53.748Z,56.23
2023-07-01T06:50:40.106Z,55.18
2023-07-01T06:53:26.657Z,54.71
2023-07-01T06:56:13.517Z,55.27
2023-07-01T06:58:59.900Z,55.26
2023-07-01T07:01:46.473Z,53.94
2023-07-01T07:04:33.430Z,54.47
2023-07-01T07:07:20.260Z,54.60
2023-07-01T07:10:07.598Z,54.46
2023-07-01T07:12:54.238Z,54.26
2023-07-01T07:15:41.785Z,53.80
2023-07-01T07:18:29.564Z,52.46
2023-07-01T07:21:16.587Z,53.09
2023-07-01T07:24:03.400Z,52.64
2023-07-01T07:26:59.359Z,52.11
2023-07-01T07:29:46.061Z,52.51
2023-07-01T07:32:32.867Z,51.12
2023-07-01T07:35:20.288Z,51.05
2023-07-01T07:38:06.764Z,51.86
2023-07-01T07:40:53.050Z,51.91
2023-07-01T07:43:39.611Z,51.00
2023-07-01T07:46:26.170Z,49.00
2023-07-01T07:49:15.037Z,48.37
2023-07-01T07:52:02.774Z,48.84
2023-07-01T07:54:50.372Z,48.83
2023-07-01T07:57:37.885Z,48.12
2023-07-01T08:00:31.761Z,47.40
2023-07-01T08:03:18.534Z,46.02
2023-07-01T08:06:05.303Z,46.93
2023-07-01T08:08:51.892Z,46.53
2023-07-01T08:11:38.647Z,46.71
2023-07-01T08:14:26.628Z,46.30
2023-07-01T08:17:13.573Z,46.31
2023-07-01T08:20:00.183Z,46.48
2023-07-01T08:22:46.877Z,47.31
2023-07-01T08:25:33.740Z,46.40
2023-07-01T08:28:20.221Z,46.64
2023-07-01T08:31:06.931Z,46.60
2023-07-01T08:33:53.676Z,46.49
2023-07-01T08:36:40.361Z,46.56
2023-07-01T08:39:27.296Z,46.20
2023-07-01T08:42:19.906Z,46.73
2023-07-01T08:45:08.434Z,45.68
2023-07-01T08:47:59.157Z,44.12
2023-07-01T08:50:57.384Z,44.60
2023-07-01T08:53:44.444Z,43.21
2023-07-01T08:56:31.517Z,43.54
2023-07-01T08:59:19.436Z,43.79
2023-07-01T09:02:07.547Z,44.11
2023-07-01T09:04:54.108Z,42.14
2023-07-01T09:07:42.682Z,42.59
2023-07-01T09:10:29.286Z,42.07
2023-07-01T09:13:16.987Z,41.05
2023-07-01T09:16:03.739Z,40.64
2023-07-01T09:19:04.491Z,37.24
2023-07-01T09:21:51.446Z,36.50
2023-07-01T09:24:40.902Z,38.09
2023-07-01T09:27:50.542Z,38.72
2023-07-01T09:30:37.848Z,38.27
2023-07-01T09:33:24.617Z,37.79
2023-07-01T09:36:24.565Z,35.93
2023-07-01T09:39:13.646Z,36.04
2023-07-01T09:42:05.896Z,35.82
2023-07-01T09:45:06.165Z,34.47
2023-07-01T09:47:56.347Z,34.72
2023-07-01T09:50:43.332Z,35.78
2023-07-01T09:53:36.033Z,34.39
2023-07-01T09:56:23.347Z,34.88
2023-07-01T09:59:11.656Z,35.53
2023-07-01T10:02:02.961Z,33.63
2023-07-01T10:04:53.591Z,32.89
2023-07-01T10:07:44.827Z,33.67
2023-07-01T10:10:31.862Z,33.09
2023-07-01T10:13:18.486Z,33.31
2023-07-01T10:16:08.022Z,33.01
2023-07-01T10:18:54.786Z,32.78
2023-07-01T10:21:41.857Z,32.73
2023-07-01T10:24:40.740Z,32.92
2023-07-01T10:27:46.126Z,31.73
2023-07-01T10:30:55.296Z,31.70
2023-07-01T10:33:42.109Z,31.77
2023-07-01T10:36:28.681Z,29.67
2023-07-01T10:39:33.837Z,30.38
2023-07-01T10:42:34.438Z,30.55
2023-07-01T10:45:27.039Z,30.93
2023-07-01T10:48:17.529Z,31.47
2023-07-01T10:51:08.767Z,28.47
2023-07-01T10:54:02.213Z,28.74
2023-07-01T10:57:13.654Z,29.69
2023-07-01T11:00:49.349Z,30.17
2023-07-01T11:03:39.129Z,30.57
2023-07-01T11:06:25.939Z,30.37
2023-07-01T11:09:14.225Z,29.37
2023-07-01T11:12:04.536Z,28.69
2023-07-01T11:14:56.593Z,29.40
2023-07-01T11:17:54.147Z,28.56
2023-07-01T11:20:49.554Z,29.17
2023-07-01T11:23:36.058Z,28.81
2023-07-01T11:26:29.976Z,29.45
2023-07-01T11:29:18.910Z,28.91
2023-07-01T11:32:08.219Z,28.07
2023-07-01T11:34:58.589Z,28.37
2023-07-01T11:37:45.413Z,27.89
2023-07-01T11:40:41.476Z,28.13
2023-07-01T11:43:28.640Z,28.72
2023-07-01T11:46:15.320Z,29.23
2023-07-01T11:49:16.554Z,28.62
2023-07-01T11:52:05.576Z,28.81
2023-07-01T11:54:56.808Z,28.05
2023-07-01T11:57:44.332Z,29.15
2023-07-01T12:00:35.325Z,28.58
2023-07-01T12:03:25.673Z,27.87
2023-07-01T12:06:24.174Z,27.73
2023-07-01T12:09:29.854Z,27.65
2023-07-01T12:12:19.648Z,27.88
2023-07-01T12:15:12.451Z,28.32
2023-07-01T12:18:28.580Z,28.09
2023-07-01T12:21:18.913Z,27.65
2023-07-01T12:24:20.796Z,27.68
2023-07-01T12:27:08.256Z,26.66
2023-07-01T12:29:55.636Z,25.98
2023-07-01T12:32:42.244Z,26.18
2023-07-01T12:35:28.959Z,25.54
2023-07-01T12:38:15.895Z,25.74
2023-07-01T12:41:04.062Z,26.50
2023-07-01T12:43:50.534Z,25.89
2023-07-01T12:46:37.440Z,25.57
2023-07-01T12:49:24.090Z,25.13
2023-07-01T12:52:10.518Z,23.68
2023-07-01T12:54:56.874Z,22.42
2023-07-01T12:57:43.846Z,22.08
2023-07-01T13:00:30.551Z,22.02
2023-07-01T13:03:16.909Z,19.89
2023-07-01T13:06:31.892Z,19.36
2023-07-01T13:09:39.543Z,18.70
2023-07-01T13:12:28.900Z,18.57
2023-07-01T13:15:52.662Z,17.24
2023-07-01T13:18:42.712Z,17.18
2023-07-01T13:21:29.575Z,18.63
2023-07-01T13:24:17.343Z,20.07
2023-07-01T13:27:08.391Z,20.99
2023-07-01T13:29:54.929Z,22.58
2023-07-01T13:32:42.281Z,23.45
2023-07-01T13:35:36.016Z,23.79
2023-07-01T13:38:23.803Z,24.86
2023-07-01T13:41:11.118Z,25.06
2023-07-01T13:44:04.178Z,24.50
2023-07-01T13:46:52.937Z,24.20
2023-07-01T13:49:40.486Z,22.75
2023-07-01T13:52:27.794Z,21.55
2023-07-01T13:55:18.870Z,20.41
2023-07-01T13:58:06.516Z,19.14
2023-07-01T14:00:55.129Z,20.01
2023-07-01T14:03:54.728Z,20.32
2023-07-01T14:06:42.202Z,19.70
2023-07-01T14:09:31.013Z,18.95
2023-07-01T14:12:17.999Z,19.35
2023-07-01T14:15:07.987Z,19.16
2023-07-01T14:17:54.929Z,18.31
2023-07-01T14:21:03.644Z,16.86
2023-07-01T14:23:56.477Z,17.64
2023-07-01T14:26:47.201Z,17.75
2023-07-01T14:29:41.988Z,17.41
2023-07-01T14:32:28.850Z,16.93
2023-07-01T14:35:20.683Z,17.03
2023-07-01T14:38:08.425Z,16.79
2023-07-01T14:40:55.294Z,17.21
2023-07-01T14:43:42.465Z,16.98
2023-07-01T14:46:40.833Z,16.46
2023-07-01T14:49:27.769Z,15.90
2023-07-01T14:52:14.778Z,15.78
2023-07-01T14:55:02.917Z,15.50
2023-07-01T14:57:49.883Z,15.52
2023-07-01T15:00:36.756Z,15.37
2023-07-01T15:03:23.536Z,15.45
2023-07-01T15:06:12.372Z,16.07
2023-07-01T15:09:01.412Z,16.77
2023-07-01T15:11:48.272Z,17.05
2023-07-01T15:14:34.800Z,17.73
2023-07-01T15:17:22.600Z,19.60
2023-07-01T15:20:09.881Z,20.94
2023-07-01T15:22:56.705Z,21.13
2023-07-01T15:25:43.902Z,20.24
2023-07-01T15:28:32.068Z,20.29
2023-07-01T15:31:18.710Z,21.36
2023-07-01T15:34:05.128Z,22.24
2023-07-01T15:36:52.089Z,22.76
2023-07-01T15:39:38.782Z,23.52
2023-07-01T15:42:26.304Z,24.27
2023-07-01T15:45:13.484Z,25.13
2023-07-01T15:48:00.621Z,25.56
2023-07-01T15:50:47.440Z,26.21
2023-07-01T15:53:34.844Z,26.80
2023-07-01T15:56:21.671Z,26.78
2023-07-01T15:59:08.984Z,26.62
2023-07-01T16:01:56.658Z,25.81
2023-07-01T16:04:44.803Z,24.15
2023-07-01T16:07:37.484Z,23.11
2023-07-01T16:10:25.783Z,22.97
2023-07-01T16:13:37.879Z,23.38
2023-07-01T16:16:42.902Z,24.92
2023-07-01T16:19:40.771Z,26.02
2023-07-01T16:22:27.891Z,26.80
2023-07-01T16:25:14.780Z,27.39
2023-07-01T16:28:01.448Z,28.30
2023-07-01T16:30:48.697Z,29.39
2023-07-01T16:33:37.155Z,30.17
2023-07-01T16:36:31.308Z,31.47
2023-07-01T16:39:18.980Z,31.98
2023-07-01T16:42:05.970Z,32.59
2023-07-01T16:44:54.876Z,33.30
2023-07-01T16:47:41.245Z,33.72
2023-07-01T16:50:55.223Z,34.28
2023-07-01T16:53:45.102Z,34.67
2023-07-01T16:56:45.874Z,34.97
2023-07-01T16:59:39.750Z,35.64
2023-07-01T17:02:32.196Z,36.46
2023-07-01T17:05:27.862Z,36.92
2023-07-01T17:08:32.532Z,37.50
2023-07-01T17:11:46.861Z,38.21
2023-07-01T17:14:46.478Z,38.64
2023-07-01T17:17:43.148Z,39.16
2023-07-01T17:20:30.164Z,39.45
2023-07-01T17:23:16.745Z,39.84
2023-07-01T17:26:03.458Z,40.31
2023-07-01T17:28:50.176Z,40.58
2023-07-01T17:31:36.899Z,40.99
2023-07-01T17:34:33.817Z,41.38
2023-07-01T17:37:20.104Z,41.51
2023-07-01T17:40:07.641Z,41.78
2023-07-01T17:42:54.638Z,42.00
2023-07-01T17:45:41.390Z,42.41
2023-07-01T17:48:28.172Z,42.73
2023-07-01T17:51:14.540Z,42.85
2023-07-01T17:54:01.072Z,43.21
2023-07-01T17:56:49.365Z,43.55
2023-07-01T17:59:36.076Z,43.72
2023-07-01T18:02:23.202Z,44.06
2023-07-01T18:05:10.719Z,44.27
2023-07-01T18:07:57.855Z,44.43
2023-07-01T18:10:44.503Z,44.75
2023-07-01T18:13:31.368Z,44.98
2023-07-01T18:16:18.027Z,45.44
2023-07-01T18:19:05.034Z,45.62
2023-07-01T18:21:52.232Z,45.62
2023-07-01T18:24:39.075Z,45.92
2023-07-01T18:27:28.485Z,45.92
2023-07-01T18:30:15.686Z,46.21
2023-07-01T18:33:02.673Z,46.50
2023-07-01T18:35:51.196Z,46.54
2023-07-01T18:38:39.801Z,46.74
2023-07-01T18:41:28.920Z,46.71
2023-07-01T18:44:15.733Z,47.03
2023-07-01T18:47:02.240Z,47.15
2023-07-01T18:49:48.825Z,47.38
2023-07-01T18:52:35.635Z,47.45
2023-07-01T18:55:22.383Z,47.75
2023-07-01T18:58:09.822Z,47.88
2023-07-01T19:00:56.581Z,47.97
2023-07-01T19:03:45.091Z,48.22
2023-07-01T19:06:31.897Z,48.26
2023-07-01T19:09:18.636Z,48.29
2023-07-01T19:12:05.883Z,48.58
2023-07-01T19:14:52.124Z,48.72
2023-07-01T19:17:38.697Z,48.70
2023-07-01T19:20:52.135Z,48.88
2023-07-01T19:23:40.029Z,49.06
2023-07-01T19:26:27.204Z,49.21
2023-07-01T19:29:14.418Z,49.08
2023-07-01T19:32:03.516Z,49.10
2023-07-01T19:34:49.981Z,49.05
2023-07-01T19:37:36.300Z,49.01
2023-07-01T19:40:23.411Z,49.01
2023-07-01T19:43:10.900Z,49.15
2023-07-01T19:45:57.548Z,49.20
2023-07-01T19:48:51.521Z,49.31
2023-07-01T19:51:39.943Z,49.50
2023-07-01T19:54:27.350Z,49.49
2023-07-01T19:57:13.942Z,49.93
2023-07-01T20:00:00.832Z,50.34
2023-07-01T20:02:48.841Z,50.32
2023-07-01T20:05:47.700Z,50.63
2023-07-01T20:08:34.642Z,50.80
2023-07-01T20:11:22.190Z,51.01
2023-07-01T20:14:09.129Z,50.99
2023-07-01T20:16:56.086Z,50.96
2023-07-01T20:19:42.726Z,50.65
2023-07-01T20:22:29.456Z,50.60
2023-07-01T20:25:16.291Z,50.45
2023-07-01T20:28:02.821Z,50.10
2023-07-01T20:30:49.660Z,50.11
2023-07-01T20:33:37.078Z,50.07
2023-07-01T20:36:23.788Z,50.12
2023-07-01T20:39:11.401Z,50.02
2023-07-01T20:42:07.397Z,50.01
2023-07-01T20:44:55.209Z,50.16
2023-07-01T20:47:43.840Z,50.19
2023-07-01T20:50:30.748Z,50.47
2023-07-01T20:53:17.333Z,50.56
2023-07-01T20:56:04.074Z,50.61
2023-07-01T20:58:50.435Z,50.85
2023-07-01T21:01:39.584Z,51.03
2023-07-01T21:04:26.263Z,51.06
2023-07-01T21:07:13.097Z,51.32
2023-07-01T21:10:00.118Z,51.05
2023-07-01T21:12:51.238Z,51.24
2023-07-01T21:15:38.556Z,51.32
2023-07-01T21:18:25.057Z,51.42
2023-07-01T21:21:11.696Z,51.52
2023-07-01T21:23:58.237Z,51.45
2023-07-01T21:26:45.591Z,51.66
2023-07-01T21:29:31.766Z,51.82
2023-07-01T21:32:18.285Z,51.99
2023-07-01T21:35:07.055Z,52.05
2023-07-01T21:37:53.386Z,51.94
2023-07-01T21:40:45.014Z,51.90
2023-07-01T21:43:32.837Z,52.12
2023-07-01T21:46:19.518Z,51.88
2023-07-01T21:49:08.202Z,51.99
2023-07-01T21:51:54.828Z,52.06
2023-07-01T21:54:41.470Z,52.01
2023-07-01T21:57:27.709Z,51.91
2023-07-01T22:00:14.863Z,51.93
2023-07-01T22:03:01.372Z,51.73
2023-07-01T22:05:51.720Z,51.86
2023-07-01T22:08:38.567Z,51.76
2023-07-01T22:11:25.596Z,51.81
2023-07-01T22:14:13.312Z,51.42
2023-07-01T22:17:00.072Z,51.17
2023-07-01T22:19:46.255Z,51.01
2023-07-01T22:22:32.633Z,50.91
2023-07-01T22:25:20.308Z,50.73
2023-07-01T22:28:06.913Z,50.88
2023-07-01T22:30:53.477Z,50.88
2023-07-01T22:33:39.972Z,50.90
2023-07-01T22:36:27.065Z,50.91
2023-07-01T22:39:13.839Z,50.99
2023-07-01T22:42:00.202Z,50.99
2023-07-01T22:44:46.376Z,51.16
2023-07-01T22:47:32.816Z,51.17
2023-07-01T22:50:21.547Z,51.23
2023-07-01T22:53:08.447Z,51.39
2023-07-01T22:55:54.669Z,51.37
2023-07-01T22:58:40.965Z,51.39
2023-07-01T23:01:27.387Z,51.58
2023-07-01T23:04:14.323Z,51.73
2023-07-01T23:07:01.179Z,51.69
2023-07-01T23:09:47.793Z,51.87
2023-07-01T23:12:35.549Z,51.97
2023-07-01T23:15:22.476Z,52.15
2023-07-01T23:18:10.331Z,52.09
2023-07-01T23:20:57.227Z,52.30
2023-07-01T23:23:43.662Z,52.42
2023-07-01T23:26:30.133Z,52.65
2023-07-01T23:29:16.354Z,52.72
2023-07-01T23:32:02.911Z,52.93
2023-07-01T23:34:51.634Z,52.96
2023-07-01T23:37:38.404Z,52.91
2023-07-01T23:40:24.960Z,53.10
2023-07-01T23:43:11.616Z,53.36
2023-07-01T23:45:58.144Z,53.32
2023-07-01T23:48:44.407Z,53.51
2023-07-01T23:51:30.966Z,53.55
2023-07-01T23:54:17.544Z,53.68
2023-07-01T23:57:04.190Z,53.76
2023-07-01T23:59:50.880Z,53.91
